Time;durP1;ratioP1;P1;durP2;ratioP2;P2;SDS_P1;SDS_P2;PMS_P1;PMS_P2;Temp;Humidity;BMP_temperature;BMP_pressure;BME280_temperature;BME280_humidity;BME280_pressure;Samples;Min_cycle;Max_cycle;Signal;HPM_P1;HPM_P2
2024/01/21 00:02:21;;;;;;;24.02;22.30;;;;;;;;;;5050431;28;20285;-75
2024/01/21 00:04:48;;;;;;;26.13;24.42;;;;;;;;;;5068042;28;20211;-74
2024/01/21 00:07:15;;;;;;;26.73;24.60;;;;;;;;;;5050924;28;20362;-75
2024/01/21 00:09:42;;;;;;;28.00;25.80;;;;;;;;;;5055179;28;20227;-76
2024/01/21 00:12:09;;;;;;;27.33;25.17;;;;;;;;;;5054752;28;20648;-75
2024/01/21 00:14:37;;;;;;;22.98;21.58;;;;;;;;;;5066089;28;20203;-76
2024/01/21 00:17:04;;;;;;;24.48;22.77;;;;;;;;;;5069728;28;20615;-76
2024/01/21 00:19:33;;;;;;;26.00;24.02;;;;;;;;;;5069376;28;20242;-76
2024/01/21 00:22:00;;;;;;;26.63;24.80;;;;;;;;;;5070091;28;20273;-76
2024/01/21 00:24:27;;;;;;;26.48;24.38;;;;;;;;;;5070680;28;20203;-75
2024/01/21 00:26:54;;;;;;;25.20;23.48;;;;;;;;;;5070036;28;20211;-75
2024/01/21 00:29:21;;;;;;;24.92;23.17;;;;;;;;;;5069862;28;20297;-76
2024/01/21 00:31:48;;;;;;;25.25;23.55;;;;;;;;;;5070348;28;20196;-75
2024/01/21 00:34:15;;;;;;;26.42;24.35;;;;;;;;;;5070073;28;20260;-76
2024/01/21 00:36:43;;;;;;;24.33;22.70;;;;;;;;;;5069764;28;21109;-76
2024/01/21 00:39:10;;;;;;;27.00;24.98;;;;;;;;;;5070113;28;20588;-75
2024/01/21 00:41:38;;;;;;;26.15;24.25;;;;;;;;;;5070502;28;20627;-76
2024/01/21 00:44:05;;;;;;;25.02;23.33;;;;;;;;;;5068702;28;20210;-76
2024/01/21 00:46:32;;;;;;;24.77;23.20;;;;;;;;;;5052402;28;20219;-76
2024/01/21 00:48:59;;;;;;;26.90;24.90;;;;;;;;;;5049656;28;20228;-76
2024/01/21 00:51:26;;;;;;;25.88;24.15;;;;;;;;;;5050197;28;20212;-76
2024/01/21 00:53:55;;;;;;;25.90;24.00;;;;;;;;;;5050315;28;20269;-76
2024/01/21 00:56:22;;;;;;;27.02;25.02;;;;;;;;;;5049946;28;20286;-75
2024/01/21 00:58:49;;;;;;;25.85;24.02;;;;;;;;;;5050104;28;20227;-76
2024/01/21 01:01:16;;;;;;;25.90;24.10;;;;;;;;;;5068805;28;20663;-76
2024/01/21 01:03:44;;;;;;;26.13;24.20;;;;;;;;;;5070308;28;20204;-75
2024/01/21 01:06:11;;;;;;;26.88;24.80;;;;;;;;;;5052755;28;20240;-75
2024/01/21 01:08:38;;;;;;;26.40;24.60;;;;;;;;;;5051759;28;20224;-76
2024/01/21 01:11:06;;;;;;;26.42;24.55;;;;;;;;;;5050152;28;20212;-75
2024/01/21 01:13:33;;;;;;;26.77;24.88;;;;;;;;;;5049893;28;20730;-76
2024/01/21 01:16:02;;;;;;;26.10;24.15;;;;;;;;;;5051077;28;20606;-76
2024/01/21 01:18:29;;;;;;;25.98;24.20;;;;;;;;;;5056048;28;20274;-76
2024/01/21 01:20:56;;;;;;;26.00;24.10;;;;;;;;;;5060196;28;20200;-76
2024/01/21 01:23:24;;;;;;;25.80;24.08;;;;;;;;;;5050068;28;20228;-76
2024/01/21 01:25:51;;;;;;;26.20;24.30;;;;;;;;;;5054387;28;20195;-75
2024/01/21 01:28:19;;;;;;;25.65;23.85;;;;;;;;;;5054627;28;20278;-76
2024/01/21 01:30:46;;;;;;;25.33;23.63;;;;;;;;;;5053653;28;20200;-75
2024/01/21 01:33:13;;;;;;;24.38;22.75;;;;;;;;;;5054828;28;20212;-75
2024/01/21 01:35:40;;;;;;;25.23;23.42;;;;;;;;;;5053723;28;20208;-75
2024/01/21 01:38:11;;;;;;;24.27;22.77;;;;;;;;;;5053170;28;20212;-76
2024/01/21 01:40:38;;;;;;;23.90;22.23;;;;;;;;;;5070525;28;20215;-75
2024/01/21 01:43:05;;;;;;;24.60;22.90;;;;;;;;;;5073483;28;20620;-75
2024/01/21 01:45:33;;;;;;;23.75;22.08;;;;;;;;;;5065150;28;20206;-76
2024/01/21 01:48:00;;;;;;;22.98;21.63;;;;;;;;;;5052618;28;20208;-76
2024/01/21 01:50:27;;;;;;;24.00;22.50;;;;;;;;;;5052342;28;20228;-77
2024/01/21 01:52:55;;;;;;;23.77;22.10;;;;;;;;;;5052915;28;20729;-76
2024/01/21 01:55:22;;;;;;;22.98;21.58;;;;;;;;;;5053211;28;20208;-77
2024/01/21 01:57:49;;;;;;;23.52;22.02;;;;;;;;;;5052564;28;20196;-76
2024/01/21 02:00:17;;;;;;;24.88;23.25;;;;;;;;;;5052954;28;20232;-75
2024/01/21 02:02:45;;;;;;;24.58;22.88;;;;;;;;;;5052446;28;20227;-76
2024/01/21 02:05:12;;;;;;;24.25;22.75;;;;;;;;;;5053370;28;20215;-75
2024/01/21 02:07:39;;;;;;;24.60;23.15;;;;;;;;;;5052268;28;20204;-76
2024/01/21 02:10:07;;;;;;;23.65;22.13;;;;;;;;;;5052608;28;20224;-76
2024/01/21 02:12:34;;;;;;;24.00;22.50;;;;;;;;;;5053305;28;20200;-75
2024/01/21 02:15:02;;;;;;;22.90;21.48;;;;;;;;;;5053245;28;20208;-75
2024/01/21 02:17:29;;;;;;;23.73;22.23;;;;;;;;;;5052074;28;20307;-75
2024/01/21 02:19:57;;;;;;;24.63;23.02;;;;;;;;;;5052721;28;20232;-76
2024/01/21 02:22:25;;;;;;;25.13;23.52;;;;;;;;;;5053056;28;20231;-76
2024/01/21 02:24:54;;;;;;;24.83;23.05;;;;;;;;;;5052457;28;20204;-76
2024/01/21 02:30:24;;;;;;;24.40;22.70;;;;;;;;;;5049953;28;20311;-75
2024/01/21 02:32:51;;;;;;;25.00;23.27;;;;;;;;;;5064949;28;20203;-76
2024/01/21 02:35:18;;;;;;;24.40;22.90;;;;;;;;;;5071846;28;20212;-75
2024/01/21 02:37:45;;;;;;;25.15;23.25;;;;;;;;;;5055074;28;20266;-76
2024/01/21 02:40:14;;;;;;;24.20;22.65;;;;;;;;;;5052139;28;20270;-76
2024/01/21 02:42:41;;;;;;;24.65;22.92;;;;;;;;;;5052463;28;20220;-75
2024/01/21 02:45:08;;;;;;;22.00;20.73;;;;;;;;;;5052654;28;20298;-75
2024/01/21 02:47:35;;;;;;;24.60;22.88;;;;;;;;;;5052072;28;20258;-75
2024/01/21 02:50:02;;;;;;;24.40;22.60;;;;;;;;;;5052082;28;20289;-75
2024/01/21 02:52:29;;;;;;;25.10;23.48;;;;;;;;;;5052470;28;20208;-75
2024/01/21 02:54:56;;;;;;;25.20;23.60;;;;;;;;;;5065622;28;20235;-76
2024/01/21 02:57:24;;;;;;;25.75;24.10;;;;;;;;;;5071667;28;20253;-76
2024/01/21 02:59:51;;;;;;;26.70;24.73;;;;;;;;;;5072213;28;20223;-75
2024/01/21 03:02:18;;;;;;;24.20;22.45;;;;;;;;;;5071687;28;20597;-75
2024/01/21 03:04:45;;;;;;;24.35;22.75;;;;;;;;;;5072063;28;20624;-76
2024/01/21 03:07:12;;;;;;;24.75;23.25;;;;;;;;;;5071175;28;20613;-76
2024/01/21 03:09:40;;;;;;;22.55;21.15;;;;;;;;;;5071375;28;20230;-76
2024/01/21 03:12:08;;;;;;;25.23;23.42;;;;;;;;;;5072266;28;20207;-75
2024/01/21 03:14:36;;;;;;;25.60;23.92;;;;;;;;;;5071701;28;20207;-76
2024/01/21 03:17:04;;;;;;;24.33;22.83;;;;;;;;;;5070423;28;20219;-75
2024/01/21 03:19:30;;;;;;;25.67;23.80;;;;;;;;;;5059698;28;20238;-76
2024/01/21 03:21:57;;;;;;;23.75;22.15;;;;;;;;;;5051788;28;20208;-76
2024/01/21 03:24:25;;;;;;;23.95;22.48;;;;;;;;;;5051369;28;20656;-75
2024/01/21 03:26:52;;;;;;;24.55;22.92;;;;;;;;;;5049959;28;20212;-75
2024/01/21 03:29:20;;;;;;;25.70;23.95;;;;;;;;;;5051377;28;20282;-76
2024/01/21 03:31:48;;;;;;;26.02;24.13;;;;;;;;;;5051712;28;20204;-76
2024/01/21 03:34:15;;;;;;;24.92;23.25;;;;;;;;;;5052344;28;20212;-76
2024/01/21 03:36:42;;;;;;;25.13;23.45;;;;;;;;;;5063571;28;20206;-76
2024/01/21 03:39:09;;;;;;;24.05;22.35;;;;;;;;;;5071290;28;20231;-75
2024/01/21 03:41:36;;;;;;;23.73;22.33;;;;;;;;;;5071652;28;20260;-76
2024/01/21 03:44:04;;;;;;;25.05;23.35;;;;;;;;;;5053722;28;20227;-75
2024/01/21 03:46:30;;;;;;;25.73;24.10;;;;;;;;;;5056309;28;20212;-75
2024/01/21 03:48:59;;;;;;;25.02;23.23;;;;;;;;;;5051379;28;20282;-75
2024/01/21 03:51:26;;;;;;;25.25;23.35;;;;;;;;;;5051149;28;20742;-76
2024/01/21 03:53:53;;;;;;;25.10;23.63;;;;;;;;;;5051369;28;20357;-76
2024/01/21 03:56:20;;;;;;;25.02;23.50;;;;;;;;;;5050725;28;20207;-76
2024/01/21 03:58:47;;;;;;;24.90;23.40;;;;;;;;;;5062776;28;20235;-75
2024/01/21 04:01:14;;;;;;;25.45;23.85;;;;;;;;;;5052608;28;20219;-75
2024/01/21 04:03:41;;;;;;;25.27;23.67;;;;;;;;;;5050905;28;20301;-76
2024/01/21 04:06:09;;;;;;;24.95;23.17;;;;;;;;;;5049829;28;20277;-76
2024/01/21 04:08:36;;;;;;;24.88;23.20;;;;;;;;;;5050869;28;20270;-76
2024/01/21 04:11:03;;;;;;;24.75;23.08;;;;;;;;;;5050963;28;20262;-75
2024/01/21 04:13:30;;;;;;;22.85;21.52;;;;;;;;;;5049780;28;20703;-75
2024/01/21 04:15:57;;;;;;;24.08;22.58;;;;;;;;;;5050403;28;20212;-76
2024/01/21 04:18:24;;;;;;;25.13;23.42;;;;;;;;;;5050362;28;20197;-75
2024/01/21 04:20:51;;;;;;;23.33;21.92;;;;;;;;;;5050739;28;20212;-75
2024/01/21 04:23:19;;;;;;;24.92;23.25;;;;;;;;;;5050009;28;20688;-76
2024/01/21 04:25:47;;;;;;;23.83;22.45;;;;;;;;;;5050214;28;20667;-76
2024/01/21 04:28:14;;;;;;;23.13;21.73;;;;;;;;;;5049871;28;20295;-77
2024/01/21 04:30:41;;;;;;;24.35;22.80;;;;;;;;;;5050556;28;20265;-76
2024/01/21 04:33:08;;;;;;;26.05;24.48;;;;;;;;;;5050225;28;20188;-75
2024/01/21 04:35:36;;;;;;;25.23;23.63;;;;;;;;;;5050841;28;20745;-75
2024/01/21 04:38:03;;;;;;;24.45;22.85;;;;;;;;;;5063104;28;20210;-75
2024/01/21 04:40:31;;;;;;;24.48;22.98;;;;;;;;;;5049820;28;20293;-76
2024/01/21 04:42:58;;;;;;;24.38;22.67;;;;;;;;;;5068191;28;20215;-76
2024/01/21 04:45:25;;;;;;;24.38;22.90;;;;;;;;;;5070131;28;20211;-75
2024/01/21 04:47:52;;;;;;;24.40;22.90;;;;;;;;;;5069036;28;20675;-77
2024/01/21 04:50:19;;;;;;;25.00;23.50;;;;;;;;;;5070181;28;20273;-75
2024/01/21 04:52:46;;;;;;;23.73;22.42;;;;;;;;;;5067216;28;20208;-76
2024/01/21 04:55:13;;;;;;;25.25;23.65;;;;;;;;;;5049876;28;20262;-76
2024/01/21 04:57:42;;;;;;;22.65;21.45;;;;;;;;;;5049775;28;20212;-75
2024/01/21 05:00:10;;;;;;;25.10;23.60;;;;;;;;;;5052747;28;20270;-75
2024/01/21 05:02:37;;;;;;;26.30;24.60;;;;;;;;;;5053871;28;20591;-75
2024/01/21 05:05:04;;;;;;;25.35;23.70;;;;;;;;;;5058461;28;20621;-75
2024/01/21 05:07:31;;;;;;;25.25;23.65;;;;;;;;;;5053540;28;21056;-76
2024/01/21 05:09:58;;;;;;;24.52;23.02;;;;;;;;;;5053794;28;20224;-76
2024/01/21 05:12:25;;;;;;;24.67;23.13;;;;;;;;;;5053965;28;20254;-75
2024/01/21 05:14:55;;;;;;;23.83;22.40;;;;;;;;;;5054140;28;20281;-75
2024/01/21 05:17:23;;;;;;;23.85;22.40;;;;;;;;;;5052926;28;20696;-76
2024/01/21 05:19:50;;;;;;;25.52;23.58;;;;;;;;;;5064558;28;20234;-76
2024/01/21 05:22:16;;;;;;;24.70;23.00;;;;;;;;;;5073782;28;20207;-76
2024/01/21 05:24:43;;;;;;;23.50;22.10;;;;;;;;;;5073567;28;20227;-75
2024/01/21 05:27:10;;;;;;;24.05;22.55;;;;;;;;;;5073394;28;20207;-76
2024/01/21 05:29:37;;;;;;;24.73;23.17;;;;;;;;;;5056609;28;20258;-76
2024/01/21 05:32:06;;;;;;;23.17;21.58;;;;;;;;;;5053632;28;20204;-76
2024/01/21 05:34:33;;;;;;;24.15;22.65;;;;;;;;;;5053975;28;20204;-76
2024/01/21 05:37:00;;;;;;;23.70;22.30;;;;;;;;;;5053082;28;20738;-75
2024/01/21 05:39:27;;;;;;;23.90;22.30;;;;;;;;;;5052679;28;20246;-75
2024/01/21 05:42:03;;;;;;;22.58;21.27;;;;;;;;;;5053620;28;20208;-76
2024/01/21 05:44:30;;;;;;;24.77;23.25;;;;;;;;;;5057578;28;20227;-75
2024/01/21 05:46:57;;;;;;;24.75;23.15;;;;;;;;;;5063952;28;20208;-76
2024/01/21 05:49:26;;;;;;;23.65;22.05;;;;;;;;;;5052871;28;20235;-76
2024/01/21 05:51:53;;;;;;;24.45;22.75;;;;;;;;;;5052715;28;20220;-76
2024/01/21 05:54:20;;;;;;;24.23;22.65;;;;;;;;;;5069000;28;20874;-76
2024/01/21 05:56:47;;;;;;;23.20;21.80;;;;;;;;;;5072455;28;20207;-76
2024/01/21 05:59:16;;;;;;;24.23;22.73;;;;;;;;;;5072925;28;20723;-75
2024/01/21 06:01:43;;;;;;;24.15;22.65;;;;;;;;;;5053982;28;20255;-75
2024/01/21 06:04:11;;;;;;;24.08;22.58;;;;;;;;;;5053015;28;20228;-75
2024/01/21 06:06:39;;;;;;;24.33;22.67;;;;;;;;;;5052613;28;20567;-76
2024/01/21 06:09:06;;;;;;;23.90;22.40;;;;;;;;;;5052459;28;20235;-75
2024/01/21 06:11:33;;;;;;;24.08;22.33;;;;;;;;;;5053356;28;20212;-75
2024/01/21 06:14:00;;;;;;;22.60;21.30;;;;;;;;;;5051334;28;20212;-75
2024/01/21 06:16:27;;;;;;;23.80;22.20;;;;;;;;;;5052190;28;20234;-76
2024/01/21 06:18:54;;;;;;;24.90;23.40;;;;;;;;;;5052557;28;20224;-75
2024/01/21 06:21:21;;;;;;;25.73;24.13;;;;;;;;;;5052811;28;20212;-75
2024/01/21 06:23:50;;;;;;;25.10;23.38;;;;;;;;;;5052347;28;20377;-76
2024/01/21 06:26:17;;;;;;;25.50;23.80;;;;;;;;;;5052066;28;20613;-75
2024/01/21 06:28:44;;;;;;;23.60;22.10;;;;;;;;;;5052229;28;20888;-76
2024/01/21 06:31:11;;;;;;;24.40;22.80;;;;;;;;;;5052113;28;20259;-75
2024/01/21 06:33:39;;;;;;;24.13;22.63;;;;;;;;;;5052726;28;20262;-76
2024/01/21 06:36:06;;;;;;;24.45;22.95;;;;;;;;;;5052074;28;20212;-76
2024/01/21 06:38:33;;;;;;;25.27;23.58;;;;;;;;;;5052152;28;20341;-76
2024/01/21 06:41:02;;;;;;;23.63;21.73;;;;;;;;;;5052217;28;20209;-75
2024/01/21 06:43:29;;;;;;;23.52;22.13;;;;;;;;;;5052574;28;20289;-75
2024/01/21 06:45:56;;;;;;;24.77;23.08;;;;;;;;;;5052488;28;20541;-76
2024/01/21 06:48:23;;;;;;;24.27;22.77;;;;;;;;;;5051947;28;20238;-76
2024/01/21 06:50:51;;;;;;;24.10;22.50;;;;;;;;;;5052428;28;20208;-76
2024/01/21 06:53:18;;;;;;;23.60;22.00;;;;;;;;;;5051332;28;20293;-75
2024/01/21 06:55:45;;;;;;;25.10;23.20;;;;;;;;;;5070468;28;20709;-77
2024/01/21 06:58:13;;;;;;;24.35;22.75;;;;;;;;;;5063514;28;20204;-76
2024/01/21 07:00:40;;;;;;;24.52;22.83;;;;;;;;;;5062601;28;20678;-76
2024/01/21 07:03:07;;;;;;;25.35;23.65;;;;;;;;;;5066323;28;20208;-75
2024/01/21 07:05:34;;;;;;;24.63;22.85;;;;;;;;;;5051982;28;20208;-76
2024/01/21 07:08:01;;;;;;;24.70;23.20;;;;;;;;;;5050654;28;20266;-76
2024/01/21 07:10:28;;;;;;;24.63;23.02;;;;;;;;;;5051693;28;20220;-76
2024/01/21 07:12:56;;;;;;;24.60;22.95;;;;;;;;;;5051945;28;20212;-75
2024/01/21 07:15:25;;;;;;;26.13;24.33;;;;;;;;;;5051946;28;20240;-76
2024/01/21 07:17:52;;;;;;;24.88;23.33;;;;;;;;;;5051975;28;20306;-75
2024/01/21 07:20:19;;;;;;;23.58;22.17;;;;;;;;;;5051509;28;20833;-75
2024/01/21 07:22:47;;;;;;;25.13;23.33;;;;;;;;;;5050803;28;20750;-76
2024/01/21 07:25:14;;;;;;;25.20;23.48;;;;;;;;;;5051592;28;20228;-75
2024/01/21 07:27:42;;;;;;;24.58;22.88;;;;;;;;;;5050774;28;20208;-76
2024/01/21 07:30:10;;;;;;;24.85;23.15;;;;;;;;;;5050061;28;20315;-75
2024/01/21 07:32:39;;;;;;;23.83;22.33;;;;;;;;;;5051163;28;20201;-75
2024/01/21 07:35:06;;;;;;;25.80;24.10;;;;;;;;;;5051330;28;20665;-76
2024/01/21 07:37:33;;;;;;;21.98;20.70;;;;;;;;;;5051136;28;20281;-75
2024/01/21 07:40:01;;;;;;;24.92;23.33;;;;;;;;;;5051366;28;20227;-75
2024/01/21 07:42:28;;;;;;;26.80;24.45;;;;;;;;;;5051675;28;20227;-76
2024/01/21 07:44:55;;;;;;;26.45;24.55;;;;;;;;;;5050679;28;20757;-76
2024/01/21 07:47:22;;;;;;;26.60;24.90;;;;;;;;;;5050494;28;20751;-76
2024/01/21 07:49:50;;;;;;;26.42;24.63;;;;;;;;;;5050804;28;20845;-75
2024/01/21 07:52:18;;;;;;;26.67;24.92;;;;;;;;;;5050709;28;20247;-76
2024/01/21 07:54:45;;;;;;;24.35;22.80;;;;;;;;;;5050308;28;20220;-76
2024/01/21 07:57:12;;;;;;;25.30;23.60;;;;;;;;;;5050075;28;20702;-75
2024/01/21 07:59:39;;;;;;;24.98;23.27;;;;;;;;;;5050275;28;20785;-75
2024/01/21 08:02:06;;;;;;;25.80;24.00;;;;;;;;;;5050850;28;20619;-75
2024/01/21 08:04:33;;;;;;;25.30;23.60;;;;;;;;;;5050365;28;20289;-76
2024/01/21 08:07:02;;;;;;;26.48;24.58;;;;;;;;;;5050069;28;20212;-75
2024/01/21 08:09:30;;;;;;;24.48;22.83;;;;;;;;;;5050635;28;20228;-76
2024/01/21 08:11:57;;;;;;;26.60;24.60;;;;;;;;;;5050331;28;20215;-75
2024/01/21 08:14:24;;;;;;;25.50;23.55;;;;;;;;;;5050759;28;20200;-75
2024/01/21 08:16:51;;;;;;;25.65;23.85;;;;;;;;;;5049585;28;20293;-74
2024/01/21 08:19:19;;;;;;;24.98;23.38;;;;;;;;;;5050608;28;20232;-76
2024/01/21 08:21:46;;;;;;;26.05;24.20;;;;;;;;;;5049781;28;20667;-76
2024/01/21 08:24:15;;;;;;;25.60;23.63;;;;;;;;;;5049732;28;20699;-76
2024/01/21 08:26:42;;;;;;;28.17;25.90;;;;;;;;;;5048432;28;20274;-77
2024/01/21 08:29:09;;;;;;;25.27;23.48;;;;;;;;;;5050703;28;20281;-77
2024/01/21 08:31:42;;;;;;;28.38;25.88;;;;;;;;;;5050808;28;20207;-78
2024/01/21 08:34:09;;;;;;;28.05;26.00;;;;;;;;;;5050014;28;20197;-74
2024/01/21 08:36:36;;;;;;;26.80;25.00;;;;;;;;;;5049150;28;20778;-74
2024/01/21 08:39:05;;;;;;;28.00;25.98;;;;;;;;;;5049269;28;20711;-73
2024/01/21 08:41:33;;;;;;;28.10;26.20;;;;;;;;;;5049519;28;20820;-73
2024/01/21 08:44:00;;;;;;;27.42;25.63;;;;;;;;;;5049132;28;20874;-73
2024/01/21 08:46:27;;;;;;;26.58;24.58;;;;;;;;;;5049105;28;20212;-73
2024/01/21 08:48:54;;;;;;;26.73;25.02;;;;;;;;;;5049401;28;20305;-74
2024/01/21 08:51:21;;;;;;;27.67;25.85;;;;;;;;;;5050021;28;20277;-74
2024/01/21 08:53:55;;;;;;;24.98;23.42;;;;;;;;;;5049197;28;20254;-73
2024/01/21 08:56:22;;;;;;;25.42;23.73;;;;;;;;;;5048727;28;20743;-74
2024/01/21 08:58:50;;;;;;;25.63;23.80;;;;;;;;;;5049755;28;20603;-74
2024/01/21 09:01:17;;;;;;;25.45;23.75;;;;;;;;;;5049806;28;20212;-75
2024/01/21 09:03:44;;;;;;;25.90;24.30;;;;;;;;;;5049933;28;20215;-73
2024/01/21 09:06:12;;;;;;;26.10;24.50;;;;;;;;;;5048873;28;20719;-75
2024/01/21 09:08:39;;;;;;;25.45;23.75;;;;;;;;;;5049490;28;20232;-76
2024/01/21 09:11:06;;;;;;;24.52;22.92;;;;;;;;;;5049495;28;20254;-74
2024/01/21 09:13:33;;;;;;;25.52;23.92;;;;;;;;;;5049541;28;20586;-74
2024/01/21 09:16:02;;;;;;;23.42;22.02;;;;;;;;;;5048902;28;20204;-73
2024/01/21 09:18:30;;;;;;;25.10;23.60;;;;;;;;;;5049625;28;20247;-73
2024/01/21 09:20:58;;;;;;;25.50;23.80;;;;;;;;;;5048573;28;20280;-73
2024/01/21 09:23:25;;;;;;;24.92;23.33;;;;;;;;;;5048336;28;20223;-74
2024/01/21 09:25:52;;;;;;;23.75;22.20;;;;;;;;;;5047558;28;20238;-73
2024/01/21 09:28:19;;;;;;;25.10;23.50;;;;;;;;;;5047482;28;20683;-74
2024/01/21 09:30:46;;;;;;;23.85;22.35;;;;;;;;;;5056821;28;20805;-73
2024/01/21 09:33:17;;;;;;;24.90;23.35;;;;;;;;;;5055568;28;20615;-73
2024/01/21 09:35:44;;;;;;;25.05;23.25;;;;;;;;;;5052291;28;20266;-74
2024/01/21 09:38:13;;;;;;;23.98;22.35;;;;;;;;;;5068996;28;20664;-73
2024/01/21 09:40:40;;;;;;;24.27;22.45;;;;;;;;;;5069581;28;20207;-73
2024/01/21 09:43:07;;;;;;;23.60;22.10;;;;;;;;;;5069532;28;20207;-73
2024/01/21 09:45:35;;;;;;;23.20;21.67;;;;;;;;;;5063985;28;20231;-73
2024/01/21 09:48:02;;;;;;;23.25;21.75;;;;;;;;;;5072432;28;20204;-73
2024/01/21 09:50:32;;;;;;;23.30;21.85;;;;;;;;;;5072859;28;20249;-73
2024/01/21 09:52:59;;;;;;;23.58;21.92;;;;;;;;;;5073398;28;20240;-73
2024/01/21 09:55:26;;;;;;;23.88;22.23;;;;;;;;;;5053246;28;20200;-73
2024/01/21 09:57:54;;;;;;;23.90;22.40;;;;;;;;;;5052596;28;20281;-73
2024/01/21 10:00:21;;;;;;;24.05;22.45;;;;;;;;;;5052690;28;20991;-73
2024/01/21 10:02:50;;;;;;;24.70;22.98;;;;;;;;;;5053259;28;20219;-73
2024/01/21 10:05:17;;;;;;;24.27;22.58;;;;;;;;;;5052744;28;20250;-73
2024/01/21 10:07:46;;;;;;;24.63;23.08;;;;;;;;;;5052232;28;20210;-73
2024/01/21 10:10:13;;;;;;;25.25;23.30;;;;;;;;;;5052941;28;20232;-74
2024/01/21 10:12:40;;;;;;;25.10;23.35;;;;;;;;;;5052623;28;20204;-73
2024/01/21 10:15:08;;;;;;;25.20;23.50;;;;;;;;;;5052436;28;20261;-74
2024/01/21 10:17:35;;;;;;;23.27;21.75;;;;;;;;;;5052071;28;20216;-73
2024/01/21 10:20:02;;;;;;;22.60;21.10;;;;;;;;;;5052678;28;20232;-73
2024/01/21 10:22:29;;;;;;;23.77;22.23;;;;;;;;;;5052695;28;20212;-72
2024/01/21 10:25:01;;;;;;;25.17;23.40;;;;;;;;;;5067505;28;20223;-73
2024/01/21 10:27:28;;;;;;;23.98;22.38;;;;;;;;;;5072071;28;20298;-73
2024/01/21 10:29:57;;;;;;;25.13;23.27;;;;;;;;;;5072484;28;20227;-73
2024/01/21 10:32:24;;;;;;;24.98;23.27;;;;;;;;;;5072572;28;20211;-74
2024/01/21 10:34:52;;;;;;;24.08;22.40;;;;;;;;;;5072129;28;20219;-73
2024/01/21 10:37:19;;;;;;;25.30;23.70;;;;;;;;;;5073913;28;20199;-79
2024/01/21 10:39:47;;;;;;;24.08;22.45;;;;;;;;;;5073808;28;20227;-76
2024/01/21 10:42:15;;;;;;;24.55;22.95;;;;;;;;;;5056880;28;20305;-81
2024/01/21 10:44:44;;;;;;;27.17;24.92;;;;;;;;;;5056860;28;20228;-81
2024/01/21 10:47:13;;;;;;;25.50;23.58;;;;;;;;;;5055011;28;20212;-74
2024/01/21 10:49:40;;;;;;;25.00;23.42;;;;;;;;;;5053321;28;20325;-78
2024/01/21 10:52:08;;;;;;;26.55;24.63;;;;;;;;;;5053220;28;20214;-77
2024/01/21 10:54:36;;;;;;;24.95;23.35;;;;;;;;;;5054032;28;20265;-79
2024/01/21 10:57:03;;;;;;;24.48;22.88;;;;;;;;;;5051887;28;20235;-78
2024/01/21 10:59:31;;;;;;;23.42;21.83;;;;;;;;;;5052862;28;20281;-76
2024/01/21 11:01:58;;;;;;;23.15;21.65;;;;;;;;;;5052700;28;20215;-75
2024/01/21 11:04:25;;;;;;;23.67;22.13;;;;;;;;;;5052175;28;20732;-78
2024/01/21 11:06:54;;;;;;;23.17;21.55;;;;;;;;;;5059679;28;20258;-76
2024/01/21 11:09:22;;;;;;;23.92;22.50;;;;;;;;;;5056538;28;20224;-81
2024/01/21 11:11:50;;;;;;;24.85;23.30;;;;;;;;;;5064674;28;20203;-79
2024/01/21 11:14:30;;;;;;;26.50;24.65;;;;;;;;;;5060301;28;20223;-78
2024/01/21 11:16:58;;;;;;;26.90;24.65;;;;;;;;;;5052516;28;20702;-76
2024/01/21 11:19:26;;;;;;;26.58;24.83;;;;;;;;;;5054905;28;20224;-76
2024/01/21 11:21:56;;;;;;;27.48;25.50;;;;;;;;;;5052019;28;20203;-77
2024/01/21 11:24:29;;;;;;;25.27;23.67;;;;;;;;;;5052521;28;20204;-75
2024/01/21 11:26:57;;;;;;;25.73;23.88;;;;;;;;;;5067967;28;20220;-79
2024/01/21 11:29:24;;;;;;;24.60;22.95;;;;;;;;;;5064456;28;20250;-81
2024/01/21 11:31:51;;;;;;;56.22;41.88;;;;;;;;;;5057763;28;20216;-79
2024/01/21 11:34:21;;;;;;;26.70;24.73;;;;;;;;;;5058017;28;20449;-79
2024/01/21 11:36:48;;;;;;;25.33;23.50;;;;;;;;;;5054852;28;20184;-76
2024/01/21 11:39:16;;;;;;;26.80;25.10;;;;;;;;;;5073713;28;20588;-79
2024/01/21 11:41:44;;;;;;;28.15;26.08;;;;;;;;;;5067786;28;20227;-79
2024/01/21 11:44:15;;;;;;;30.35;28.15;;;;;;;;;;5062534;28;20204;-79
2024/01/21 11:46:43;;;;;;;26.60;24.85;;;;;;;;;;5056821;28;20282;-79
2024/01/21 11:49:10;;;;;;;25.65;24.05;;;;;;;;;;5057208;28;20712;-79
2024/01/21 11:51:38;;;;;;;31.48;29.02;;;;;;;;;;5055604;28;20258;-78
2024/01/21 11:54:06;;;;;;;25.27;23.67;;;;;;;;;;5063082;28;20204;-80
2024/01/21 11:56:33;;;;;;;27.13;25.33;;;;;;;;;;5081791;28;20203;-80
2024/01/21 11:59:00;;;;;;;26.67;24.85;;;;;;;;;;5081037;28;20231;-79
2024/01/21 12:01:27;;;;;;;25.58;23.83;;;;;;;;;;5059620;28;20208;-80
2024/01/21 12:03:54;;;;;;;26.67;24.98;;;;;;;;;;5060522;28;20212;-80
2024/01/21 12:06:22;;;;;;;25.30;23.55;;;;;;;;;;5061111;28;20251;-80
2024/01/21 12:08:50;;;;;;;26.70;24.70;;;;;;;;;;5058385;28;20640;-79
2024/01/21 12:11:17;;;;;;;25.52;23.75;;;;;;;;;;5062334;28;20559;-80
2024/01/21 12:13:44;;;;;;;25.70;24.00;;;;;;;;;;5080475;28;20207;-80
2024/01/21 12:16:11;;;;;;;27.52;25.15;;;;;;;;;;5079429;28;20895;-80
2024/01/21 12:18:39;;;;;;;26.55;24.80;;;;;;;;;;5080125;28;20227;-80
2024/01/21 12:21:07;;;;;;;24.40;22.70;;;;;;;;;;5080261;28;20211;-80
2024/01/21 12:23:35;;;;;;;24.65;23.05;;;;;;;;;;5079237;28;20293;-81
2024/01/21 12:26:03;;;;;;;25.77;23.98;;;;;;;;;;5060855;28;20251;-80
2024/01/21 12:28:31;;;;;;;26.67;24.67;;;;;;;;;;5061520;28;20208;-80
2024/01/21 12:30:58;;;;;;;23.90;22.35;;;;;;;;;;5062643;28;20464;-80
2024/01/21 12:33:25;;;;;;;25.73;24.02;;;;;;;;;;5064480;28;20227;-79
2024/01/21 12:35:53;;;;;;;25.48;23.67;;;;;;;;;;5071107;28;20203;-80
2024/01/21 12:38:20;;;;;;;23.75;22.05;;;;;;;;;;5071613;28;20667;-80
2024/01/21 12:40:47;;;;;;;25.52;23.65;;;;;;;;;;5076384;28;20207;-81
2024/01/21 12:43:17;;;;;;;25.73;23.92;;;;;;;;;;5074097;28;20222;-81
2024/01/21 12:45:44;;;;;;;25.10;23.17;;;;;;;;;;5050886;28;20251;-75
2024/01/21 12:48:12;;;;;;;22.80;21.02;;;;;;;;;;5050492;28;20204;-74
2024/01/21 12:50:41;;;;;;;25.58;23.85;;;;;;;;;;5050724;28;20228;-74
2024/01/21 12:53:09;;;;;;;26.88;24.80;;;;;;;;;;5050859;28;20212;-74
2024/01/21 12:55:35;;;;;;;24.15;22.60;;;;;;;;;;5069939;28;20200;-75
2024/01/21 12:58:03;;;;;;;25.58;23.77;;;;;;;;;;5070321;28;20609;-75
2024/01/21 13:00:31;;;;;;;23.52;21.98;;;;;;;;;;5070877;28;20239;-75
2024/01/21 13:02:58;;;;;;;26.02;24.27;;;;;;;;;;5071173;28;20210;-76
2024/01/21 13:05:25;;;;;;;23.33;21.83;;;;;;;;;;5070721;28;20227;-76
2024/01/21 13:07:54;;;;;;;24.48;22.88;;;;;;;;;;5070260;28;20277;-76
2024/01/21 13:10:21;;;;;;;26.17;24.40;;;;;;;;;;5071043;28;20223;-76
2024/01/21 13:12:48;;;;;;;24.30;22.70;;;;;;;;;;5070421;28;20286;-75
2024/01/21 13:15:15;;;;;;;22.23;20.77;;;;;;;;;;5070575;28;20207;-75
2024/01/21 13:17:44;;;;;;;23.42;21.90;;;;;;;;;;5067293;28;20211;-76
2024/01/21 13:20:11;;;;;;;23.98;22.33;;;;;;;;;;5055020;28;20573;-76
2024/01/21 13:22:38;;;;;;;25.33;23.50;;;;;;;;;;5074207;28;20208;-76
2024/01/21 13:25:05;;;;;;;23.77;22.08;;;;;;;;;;5073819;28;20215;-75
2024/01/21 13:27:40;;;;;;;23.02;21.52;;;;;;;;;;5073816;28;20223;-76
2024/01/21 13:32:53;;;;;;;25.02;23.05;;;;;;;;;;5060104;28;20281;-76
2024/01/21 13:35:20;;;;;;;24.38;22.73;;;;;;;;;;5053808;28;20207;-75
2024/01/21 13:37:47;;;;;;;23.83;22.15;;;;;;;;;;5053688;28;20216;-76
2024/01/21 13:40:15;;;;;;;25.63;23.80;;;;;;;;;;5055785;28;20730;-76
2024/01/21 13:42:42;;;;;;;24.67;22.92;;;;;;;;;;5054207;28;20208;-76
2024/01/21 13:45:09;;;;;;;24.80;23.00;;;;;;;;;;5054387;28;20200;-76
2024/01/21 13:47:36;;;;;;;24.48;22.85;;;;;;;;;;5053416;28;20232;-76
2024/01/21 13:50:05;;;;;;;23.13;21.77;;;;;;;;;;5053893;28;20278;-76
2024/01/21 13:52:32;;;;;;;22.90;21.50;;;;;;;;;;5054028;28;20216;-75
2024/01/21 13:55:00;;;;;;;21.70;20.27;;;;;;;;;;5067231;28;20227;-76
2024/01/21 13:57:27;;;;;;;23.55;22.15;;;;;;;;;;5063309;28;20567;-76
2024/01/21 13:59:54;;;;;;;25.60;23.67;;;;;;;;;;5052375;28;20240;-75
2024/01/21 14:02:21;;;;;;;25.95;23.95;;;;;;;;;;5053889;28;20212;-75
2024/01/21 14:04:48;;;;;;;23.17;21.80;;;;;;;;;;5055704;28;20671;-75
2024/01/21 14:07:16;;;;;;;23.42;21.80;;;;;;;;;;5054892;28;20228;-75
2024/01/21 14:09:43;;;;;;;24.20;22.55;;;;;;;;;;5053630;28;20220;-78
2024/01/21 14:12:11;;;;;;;22.67;21.20;;;;;;;;;;5063207;28;20266;-81
2024/01/21 14:14:38;;;;;;;23.73;22.02;;;;;;;;;;5062955;28;20197;-75
2024/01/21 14:17:06;;;;;;;26.13;24.25;;;;;;;;;;5051620;28;20251;-75
2024/01/21 14:19:33;;;;;;;24.23;22.30;;;;;;;;;;5052783;28;20229;-75
2024/01/21 14:22:00;;;;;;;25.23;23.50;;;;;;;;;;5053137;28;20480;-75
2024/01/21 14:24:29;;;;;;;23.50;21.67;;;;;;;;;;5061841;28;20341;-75